sensor_id;sensor_type;location;lat;lon;timestamp;P1;durP1;ratioP1;P2;durP2;ratioP2
7899;SDS011;3995;50.856;4.404;2022-07-11T00:01:33;5.70;;;2.90;;
7899;SDS011;3995;50.856;4.404;2022-07-11T00:04:02;5.47;;;3.40;;
7899;SDS011;3995;50.856;4.404;2022-07-11T00:06:29;7.70;;;3.73;;
7899;SDS011;3995;50.856;4.404;2022-07-11T00:09:04;5.53;;;3.40;;
7899;SDS011;3995;50.856;4.404;2022-07-11T00:11:31;5.00;;;3.73;;
7899;SDS011;3995;50.856;4.404;2022-07-11T00:13:59;7.93;;;3.57;;
7899;SDS011;3995;50.856;4.404;2022-07-11T00:16:25;4.27;;;3.10;;
7899;SDS011;3995;50.856;4.404;2022-07-11T00:18:53;7.73;;;4.40;;
7899;SDS011;3995;50.856;4.404;2022-07-11T00:21:21;8.07;;;3.73;;
7899;SDS011;3995;50.856;4.404;2022-07-11T00:23:49;10.00;;;4.33;;
7899;SDS011;3995;50.856;4.404;2022-07-11T00:26:16;5.97;;;3.87;;
7899;SDS011;3995;50.856;4.404;2022-07-11T00:28:43;4.70;;;3.63;;
7899;SDS011;3995;50.856;4.404;2022-07-11T00:31:10;7.97;;;3.53;;
7899;SDS011;3995;50.856;4.404;2022-07-11T00:33:38;8.77;;;3.77;;
7899;SDS011;3995;50.856;4.404;2022-07-11T00:36:05;6.70;;;3.73;;
7899;SDS011;3995;50.856;4.404;2022-07-11T00:38:34;9.57;;;4.17;;
7899;SDS011;3995;50.856;4.404;2022-07-11T00:41:02;5.27;;;3.93;;
7899;SDS011;3995;50.856;4.404;2022-07-11T00:43:29;8.07;;;3.93;;
7899;SDS011;3995;50.856;4.404;2022-07-11T00:45:57;12.23;;;3.87;;
7899;SDS011;3995;50.856;4.404;2022-07-11T00:48:25;7.30;;;4.43;;
7899;SDS011;3995;50.856;4.404;2022-07-11T00:50:52;8.30;;;4.33;;
7899;SDS011;3995;50.856;4.404;2022-07-11T00:53:20;10.27;;;4.20;;
7899;SDS011;3995;50.856;4.404;2022-07-11T00:55:49;8.30;;;4.20;;
7899;SDS011;3995;50.856;4.404;2022-07-11T00:58:18;12.73;;;4.17;;
7899;SDS011;3995;50.856;4.404;2022-07-11T01:00:45;6.60;;;4.00;;
7899;SDS011;3995;50.856;4.404;2022-07-11T01:03:12;8.63;;;4.50;;
7899;SDS011;3995;50.856;4.404;2022-07-11T01:05:39;8.27;;;4.07;;
7899;SDS011;3995;50.856;4.404;2022-07-11T01:08:07;6.43;;;4.13;;
7899;SDS011;3995;50.856;4.404;2022-07-11T01:10:34;7.53;;;4.40;;
7899;SDS011;3995;50.856;4.404;2022-07-11T01:13:04;7.77;;;4.80;;
7899;SDS011;3995;50.856;4.404;2022-07-11T01:15:33;5.37;;;3.40;;
7899;SDS011;3995;50.856;4.404;2022-07-11T01:18:00;5.70;;;4.03;;
7899;SDS011;3995;50.856;4.404;2022-07-11T01:20:27;5.63;;;4.07;;
7899;SDS011;3995;50.856;4.404;2022-07-11T01:25:28;5.73;;;4.00;;
7899;SDS011;3995;50.856;4.404;2022-07-11T01:27:56;9.93;;;4.20;;
7899;SDS011;3995;50.856;4.404;2022-07-11T01:30:24;7.27;;;5.00;;
7899;SDS011;3995;50.856;4.404;2022-07-11T01:32:52;9.63;;;5.17;;
7899;SDS011;3995;50.856;4.404;2022-07-11T01:35:20;6.20;;;4.90;;
7899;SDS011;3995;50.856;4.404;2022-07-11T01:37:50;5.77;;;4.30;;
7899;SDS011;3995;50.856;4.404;2022-07-11T01:40:19;7.77;;;4.77;;
7899;SDS011;3995;50.856;4.404;2022-07-11T01:42:46;6.83;;;4.60;;
7899;SDS011;3995;50.856;4.404;2022-07-11T01:45:13;8.60;;;4.47;;
7899;SDS011;3995;50.856;4.404;2022-07-11T01:47:40;11.43;;;5.23;;
7899;SDS011;3995;50.856;4.404;2022-07-11T01:50:07;7.30;;;5.33;;
7899;SDS011;3995;50.856;4.404;2022-07-11T01:52:35;11.03;;;4.67;;
7899;SDS011;3995;50.856;4.404;2022-07-11T01:55:02;6.17;;;4.20;;
7899;SDS011;3995;50.856;4.404;2022-07-11T01:57:31;8.97;;;5.70;;
7899;SDS011;3995;50.856;4.404;2022-07-11T01:59:59;11.40;;;5.53;;
7899;SDS011;3995;50.856;4.404;2022-07-11T02:02:27;7.00;;;4.53;;
7899;SDS011;3995;50.856;4.404;2022-07-11T02:04:54;6.37;;;4.70;;
7899;SDS011;3995;50.856;4.404;2022-07-11T02:07:21;14.63;;;4.70;;
7899;SDS011;3995;50.856;4.404;2022-07-11T02:10:02;10.77;;;5.60;;
7899;SDS011;3995;50.856;4.404;2022-07-11T02:12:31;10.77;;;4.70;;
7899;SDS011;3995;50.856;4.404;2022-07-11T02:14:58;12.47;;;4.90;;
7899;SDS011;3995;50.856;4.404;2022-07-11T02:17:25;8.37;;;5.03;;
7899;SDS011;3995;50.856;4.404;2022-07-11T02:19:52;7.33;;;5.37;;
7899;SDS011;3995;50.856;4.404;2022-07-11T02:22:19;7.67;;;4.40;;
7899;SDS011;3995;50.856;4.404;2022-07-11T02:24:47;8.27;;;6.20;;
7899;SDS011;3995;50.856;4.404;2022-07-11T02:27:14;8.80;;;6.57;;
7899;SDS011;3995;50.856;4.404;2022-07-11T02:29:43;8.37;;;6.40;;
7899;SDS011;3995;50.856;4.404;2022-07-11T02:32:10;11.93;;;6.10;;
7899;SDS011;3995;50.856;4.404;2022-07-11T02:34:38;8.63;;;6.57;;
7899;SDS011;3995;50.856;4.404;2022-07-11T02:37:05;13.10;;;6.60;;
7899;SDS011;3995;50.856;4.404;2022-07-11T02:39:32;8.27;;;6.23;;
7899;SDS011;3995;50.856;4.404;2022-07-11T02:42:00;12.53;;;6.53;;
7899;SDS011;3995;50.856;4.404;2022-07-11T02:44:27;8.80;;;6.30;;
7899;SDS011;3995;50.856;4.404;2022-07-11T02:46:55;7.20;;;5.80;;
7899;SDS011;3995;50.856;4.404;2022-07-11T02:49:22;7.90;;;5.97;;
7899;SDS011;3995;50.856;4.404;2022-07-11T02:51:49;12.30;;;6.10;;
7899;SDS011;3995;50.856;4.404;2022-07-11T02:54:16;6.60;;;5.90;;
7899;SDS011;3995;50.856;4.404;2022-07-11T02:56:43;13.10;;;7.43;;
7899;SDS011;3995;50.856;4.404;2022-07-11T02:59:11;10.53;;;6.70;;
7899;SDS011;3995;50.856;4.404;2022-07-11T03:01:37;10.50;;;6.40;;
7899;SDS011;3995;50.856;4.404;2022-07-11T03:04:07;14.47;;;7.27;;
7899;SDS011;3995;50.856;4.404;2022-07-11T03:06:35;10.03;;;7.57;;
7899;SDS011;3995;50.856;4.404;2022-07-11T03:09:03;11.93;;;7.43;;
7899;SDS011;3995;50.856;4.404;2022-07-11T03:11:31;11.50;;;7.90;;
7899;SDS011;3995;50.856;4.404;2022-07-11T03:13:58;12.53;;;8.13;;
7899;SDS011;3995;50.856;4.404;2022-07-11T03:16:26;10.00;;;8.73;;
7899;SDS011;3995;50.856;4.404;2022-07-11T03:18:53;12.00;;;10.03;;
7899;SDS011;3995;50.856;4.404;2022-07-11T03:21:22;12.90;;;9.47;;
7899;SDS011;3995;50.856;4.404;2022-07-11T03:23:50;14.10;;;8.90;;
7899;SDS011;3995;50.856;4.404;2022-07-11T03:26:17;14.53;;;9.17;;
7899;SDS011;3995;50.856;4.404;2022-07-11T03:28:44;18.60;;;9.57;;
7899;SDS011;3995;50.856;4.404;2022-07-11T03:31:11;13.73;;;9.43;;
7899;SDS011;3995;50.856;4.404;2022-07-11T03:33:38;11.93;;;9.03;;
7899;SDS011;3995;50.856;4.404;2022-07-11T03:36:06;13.13;;;9.03;;
7899;SDS011;3995;50.856;4.404;2022-07-11T03:38:34;13.83;;;11.20;;
7899;SDS011;3995;50.856;4.404;2022-07-11T03:41:03;14.93;;;11.20;;
7899;SDS011;3995;50.856;4.404;2022-07-11T03:43:30;14.20;;;10.53;;
7899;SDS011;3995;50.856;4.404;2022-07-11T03:45:58;14.33;;;9.70;;
7899;SDS011;3995;50.856;4.404;2022-07-11T03:48:24;12.47;;;9.93;;
7899;SDS011;3995;50.856;4.404;2022-07-11T03:50:52;13.10;;;9.10;;
7899;SDS011;3995;50.856;4.404;2022-07-11T03:53:19;12.83;;;9.90;;
7899;SDS011;3995;50.856;4.404;2022-07-11T03:55:48;15.23;;;10.63;;
7899;SDS011;3995;50.856;4.404;2022-07-11T03:58:14;14.17;;;10.03;;
7899;SDS011;3995;50.856;4.404;2022-07-11T04:00:42;16.10;;;10.00;;
7899;SDS011;3995;50.856;4.404;2022-07-11T04:03:09;14.03;;;10.10;;
7899;SDS011;3995;50.856;4.404;2022-07-11T04:05:36;12.80;;;10.03;;
7899;SDS011;3995;50.856;4.404;2022-07-11T04:08:03;15.13;;;10.50;;
7899;SDS011;3995;50.856;4.404;2022-07-11T04:10:30;18.20;;;12.30;;
7899;SDS011;3995;50.856;4.404;2022-07-11T04:12:59;25.53;;;10.87;;
7899;SDS011;3995;50.856;4.404;2022-07-11T04:15:26;18.60;;;10.73;;
7899;SDS011;3995;50.856;4.404;2022-07-11T04:17:53;24.53;;;10.63;;
7899;SDS011;3995;50.856;4.404;2022-07-11T04:20:20;15.17;;;12.73;;
7899;SDS011;3995;50.856;4.404;2022-07-11T04:22:47;18.63;;;12.53;;
7899;SDS011;3995;50.856;4.404;2022-07-11T04:25:14;19.03;;;11.13;;
7899;SDS011;3995;50.856;4.404;2022-07-11T04:27:41;18.20;;;13.03;;
7899;SDS011;3995;50.856;4.404;2022-07-11T04:30:10;24.90;;;11.53;;
7899;SDS011;3995;50.856;4.404;2022-07-11T04:32:38;16.60;;;11.97;;
7899;SDS011;3995;50.856;4.404;2022-07-11T04:35:06;15.00;;;13.10;;
7899;SDS011;3995;50.856;4.404;2022-07-11T04:37:34;16.33;;;11.37;;
7899;SDS011;3995;50.856;4.404;2022-07-11T04:40:01;16.73;;;12.00;;
7899;SDS011;3995;50.856;4.404;2022-07-11T04:42:28;27.77;;;13.10;;
7899;SDS011;3995;50.856;4.404;2022-07-11T04:44:55;16.07;;;13.07;;
7899;SDS011;3995;50.856;4.404;2022-07-11T04:47:24;17.30;;;11.70;;
7899;SDS011;3995;50.856;4.404;2022-07-11T04:49:51;16.70;;;11.67;;
7899;SDS011;3995;50.856;4.404;2022-07-11T04:52:18;16.17;;;12.50;;
7899;SDS011;3995;50.856;4.404;2022-07-11T04:54:45;17.00;;;12.47;;
7899;SDS011;3995;50.856;4.404;2022-07-11T04:57:13;14.80;;;13.10;;
7899;SDS011;3995;50.856;4.404;2022-07-11T04:59:40;16.67;;;12.30;;
7899;SDS011;3995;50.856;4.404;2022-07-11T05:02:07;15.67;;;11.90;;
7899;SDS011;3995;50.856;4.404;2022-07-11T05:04:36;23.20;;;13.10;;
7899;SDS011;3995;50.856;4.404;2022-07-11T05:07:04;16.17;;;10.70;;
7899;SDS011;3995;50.856;4.404;2022-07-11T05:09:31;19.53;;;11.97;;
7899;SDS011;3995;50.856;4.404;2022-07-11T05:11:58;15.67;;;11.83;;
7899;SDS011;3995;50.856;4.404;2022-07-11T05:14:26;16.57;;;12.23;;
7899;SDS011;3995;50.856;4.404;2022-07-11T05:16:53;12.67;;;10.33;;
7899;SDS011;3995;50.856;4.404;2022-07-11T05:19:21;20.00;;;13.07;;
7899;SDS011;3995;50.856;4.404;2022-07-11T05:21:49;16.97;;;12.20;;
7899;SDS011;3995;50.856;4.404;2022-07-11T05:24:16;22.50;;;12.00;;
7899;SDS011;3995;50.856;4.404;2022-07-11T05:26:43;22.47;;;12.13;;
7899;SDS011;3995;50.856;4.404;2022-07-11T05:29:12;18.20;;;11.70;;
7899;SDS011;3995;50.856;4.404;2022-07-11T05:31:39;16.47;;;12.77;;
7899;SDS011;3995;50.856;4.404;2022-07-11T05:34:07;20.07;;;12.83;;
7899;SDS011;3995;50.856;4.404;2022-07-11T05:36:35;17.73;;;13.03;;
7899;SDS011;3995;50.856;4.404;2022-07-11T05:39:03;18.30;;;12.20;;
7899;SDS011;3995;50.856;4.404;2022-07-11T05:41:30;14.33;;;11.10;;
7899;SDS011;3995;50.856;4.404;2022-07-11T05:43:58;24.40;;;12.27;;
7899;SDS011;3995;50.856;4.404;2022-07-11T05:46:25;16.87;;;11.43;;
7899;SDS011;3995;50.856;4.404;2022-07-11T05:48:52;19.00;;;10.20;;
7899;SDS011;3995;50.856;4.404;2022-07-11T05:51:19;15.53;;;10.70;;
7899;SDS011;3995;50.856;4.404;2022-07-11T05:53:46;15.20;;;9.37;;
7899;SDS011;3995;50.856;4.404;2022-07-11T05:56:16;10.67;;;7.87;;
7899;SDS011;3995;50.856;4.404;2022-07-11T05:58:43;12.50;;;7.03;;
7899;SDS011;3995;50.856;4.404;2022-07-11T06:01:10;12.70;;;6.63;;
7899;SDS011;3995;50.856;4.404;2022-07-11T06:03:37;12.93;;;7.20;;
7899;SDS011;3995;50.856;4.404;2022-07-11T06:06:04;15.40;;;7.07;;
7899;SDS011;3995;50.856;4.404;2022-07-11T06:08:32;10.50;;;6.73;;
7899;SDS011;3995;50.856;4.404;2022-07-11T06:11:09;13.50;;;6.90;;
7899;SDS011;3995;50.856;4.404;2022-07-11T06:13:41;12.40;;;6.63;;
7899;SDS011;3995;50.856;4.404;2022-07-11T06:16:10;16.87;;;7.67;;
7899;SDS011;3995;50.856;4.404;2022-07-11T06:18:38;9.40;;;5.97;;
7899;SDS011;3995;50.856;4.404;2022-07-11T06:21:05;12.77;;;7.17;;
7899;SDS011;3995;50.856;4.404;2022-07-11T06:23:32;12.10;;;7.97;;
7899;SDS011;3995;50.856;4.404;2022-07-11T06:26:00;24.07;;;9.33;;
7899;SDS011;3995;50.856;4.404;2022-07-11T06:28:28;13.13;;;7.53;;
7899;SDS011;3995;50.856;4.404;2022-07-11T06:30:57;14.67;;;7.43;;
7899;SDS011;3995;50.856;4.404;2022-07-11T06:33:24;13.37;;;7.40;;
7899;SDS011;3995;50.856;4.404;2022-07-11T06:35:51;10.93;;;6.17;;
7899;SDS011;3995;50.856;4.404;2022-07-11T06:38:19;7.47;;;5.63;;
7899;SDS011;3995;50.856;4.404;2022-07-11T06:40:46;8.73;;;6.00;;
7899;SDS011;3995;50.856;4.404;2022-07-11T06:43:14;7.67;;;6.30;;
7899;SDS011;3995;50.856;4.404;2022-07-11T06:45:41;8.67;;;5.73;;
7899;SDS011;3995;50.856;4.404;2022-07-11T06:48:11;10.90;;;6.93;;
7899;SDS011;3995;50.856;4.404;2022-07-11T06:50:38;7.63;;;5.67;;
7899;SDS011;3995;50.856;4.404;2022-07-11T06:53:05;7.70;;;5.27;;
7899;SDS011;3995;50.856;4.404;2022-07-11T06:55:33;9.63;;;5.97;;
7899;SDS011;3995;50.856;4.404;2022-07-11T06:58:00;10.90;;;5.70;;
7899;SDS011;3995;50.856;4.404;2022-07-11T07:00:27;13.57;;;7.10;;
7899;SDS011;3995;50.856;4.404;2022-07-11T07:02:55;9.67;;;6.73;;
7899;SDS011;3995;50.856;4.404;2022-07-11T07:05:24;9.00;;;5.97;;
7899;SDS011;3995;50.856;4.404;2022-07-11T07:07:51;18.80;;;7.10;;
7899;SDS011;3995;50.856;4.404;2022-07-11T07:10:19;11.70;;;6.60;;
7899;SDS011;3995;50.856;4.404;2022-07-11T07:12:46;9.67;;;6.50;;
7899;SDS011;3995;50.856;4.404;2022-07-11T07:15:14;16.73;;;6.97;;
7899;SDS011;3995;50.856;4.404;2022-07-11T07:17:41;11.20;;;6.90;;
7899;SDS011;3995;50.856;4.404;2022-07-11T07:20:09;12.47;;;7.63;;
7899;SDS011;3995;50.856;4.404;2022-07-11T07:22:39;19.20;;;7.80;;
7899;SDS011;3995;50.856;4.404;2022-07-11T07:25:13;9.63;;;6.83;;
7899;SDS011;3995;50.856;4.404;2022-07-11T07:27:40;10.33;;;6.20;;
7899;SDS011;3995;50.856;4.404;2022-07-11T07:30:08;12.43;;;6.10;;
7899;SDS011;3995;50.856;4.404;2022-07-11T07:32:35;10.50;;;6.00;;
7899;SDS011;3995;50.856;4.404;2022-07-11T07:35:03;12.20;;;6.10;;
7899;SDS011;3995;50.856;4.404;2022-07-11T07:37:31;13.60;;;6.80;;
7899;SDS011;3995;50.856;4.404;2022-07-11T07:40:00;10.70;;;5.70;;
7899;SDS011;3995;50.856;4.404;2022-07-11T07:42:27;8.67;;;5.00;;
7899;SDS011;3995;50.856;4.404;2022-07-11T07:44:54;6.40;;;4.90;;
7899;SDS011;3995;50.856;4.404;2022-07-11T07:47:22;13.73;;;4.50;;
7899;SDS011;3995;50.856;4.404;2022-07-11T07:49:49;11.10;;;4.40;;
7899;SDS011;3995;50.856;4.404;2022-07-11T07:52:16;8.07;;;5.13;;
7899;SDS011;3995;50.856;4.404;2022-07-11T07:54:43;8.07;;;4.97;;
7899;SDS011;3995;50.856;4.404;2022-07-11T07:57:13;8.57;;;4.90;;
7899;SDS011;3995;50.856;4.404;2022-07-11T07:59:40;15.40;;;6.03;;
7899;SDS011;3995;50.856;4.404;2022-07-11T08:02:08;8.20;;;5.23;;
7899;SDS011;3995;50.856;4.404;2022-07-11T08:04:34;12.63;;;4.80;;
7899;SDS011;3995;50.856;4.404;2022-07-11T08:07:01;7.20;;;5.13;;
7899;SDS011;3995;50.856;4.404;2022-07-11T08:09:29;8.60;;;4.53;;
7899;SDS011;3995;50.856;4.404;2022-07-11T08:11:56;8.60;;;4.43;;
7899;SDS011;3995;50.856;4.404;2022-07-11T08:14:24;8.97;;;4.93;;
7899;SDS011;3995;50.856;4.404;2022-07-11T08:16:52;6.93;;;4.53;;
7899;SDS011;3995;50.856;4.404;2022-07-11T08:19:19;6.33;;;3.83;;
7899;SDS011;3995;50.856;4.404;2022-07-11T08:21:46;13.73;;;4.87;;
7899;SDS011;3995;50.856;4.404;2022-07-11T08:24:13;7.40;;;4.20;;
7899;SDS011;3995;50.856;4.404;2022-07-11T08:26:40;12.20;;;4.27;;
7899;SDS011;3995;50.856;4.404;2022-07-11T08:29:07;9.10;;;4.60;;
7899;SDS011;3995;50.856;4.404;2022-07-11T08:31:37;8.97;;;3.50;;
7899;SDS011;3995;50.856;4.404;2022-07-11T08:34:03;8.00;;;4.70;;
7899;SDS011;3995;50.856;4.404;2022-07-11T08:36:31;10.87;;;5.20;;
7899;SDS011;3995;50.856;4.404;2022-07-11T08:39:00;9.87;;;4.83;;
7899;SDS011;3995;50.856;4.404;2022-07-11T08:41:27;6.40;;;4.50;;
7899;SDS011;3995;50.856;4.404;2022-07-11T08:43:54;10.07;;;5.03;;
7899;SDS011;3995;50.856;4.404;2022-07-11T08:46:21;6.67;;;4.80;;
7899;SDS011;3995;50.856;4.404;2022-07-11T08:48:51;11.33;;;4.53;;
7899;SDS011;3995;50.856;4.404;2022-07-11T08:51:20;14.90;;;4.73;;
7899;SDS011;3995;50.856;4.404;2022-07-11T08:53:49;13.57;;;4.67;;
7899;SDS011;3995;50.856;4.404;2022-07-11T08:56:18;6.90;;;4.83;;
7899;SDS011;3995;50.856;4.404;2022-07-11T08:58:47;4.57;;;3.80;;
7899;SDS011;3995;50.856;4.404;2022-07-11T09:01:16;9.40;;;4.17;;
7899;SDS011;3995;50.856;4.404;2022-07-11T09:03:44;7.80;;;4.27;;
7899;SDS011;3995;50.856;4.404;2022-07-11T09:06:13;6.50;;;4.07;;
7899;SDS011;3995;50.856;4.404;2022-07-11T09:08:40;9.90;;;4.70;;
7899;SDS011;3995;50.856;4.404;2022-07-11T09:11:07;10.33;;;4.40;;
7899;SDS011;3995;50.856;4.404;2022-07-11T09:13:36;7.10;;;4.47;;
7899;SDS011;3995;50.856;4.404;2022-07-11T09:16:03;6.77;;;4.83;;
7899;SDS011;3995;50.856;4.404;2022-07-11T09:18:33;8.83;;;5.10;;
7899;SDS011;3995;50.856;4.404;2022-07-11T09:21:02;9.33;;;5.10;;
7899;SDS011;3995;50.856;4.404;2022-07-11T09:23:49;8.27;;;4.03;;
7899;SDS011;3995;50.856;4.404;2022-07-11T09:26:34;5.53;;;4.10;;
7899;SDS011;3995;50.856;4.404;2022-07-11T09:29:04;8.27;;;4.40;;
7899;SDS011;3995;50.856;4.404;2022-07-11T09:31:32;7.43;;;4.10;;
7899;SDS011;3995;50.856;4.404;2022-07-11T09:34:02;9.90;;;4.60;;
7899;SDS011;3995;50.856;4.404;2022-07-11T09:36:34;8.03;;;3.47;;
7899;SDS011;3995;50.856;4.404;2022-07-11T09:39:04;7.30;;;5.30;;
7899;SDS011;3995;50.856;4.404;2022-07-11T09:41:33;9.10;;;5.20;;
7899;SDS011;3995;50.856;4.404;2022-07-11T09:44:08;5.90;;;4.63;;
7899;SDS011;3995;50.856;4.404;2022-07-11T09:46:36;8.17;;;4.50;;
7899;SDS011;3995;50.856;4.404;2022-07-11T09:49:03;5.90;;;3.43;;
7899;SDS011;3995;50.856;4.404;2022-07-11T09:51:32;6.13;;;3.53;;
7899;SDS011;3995;50.856;4.404;2022-07-11T09:54:00;7.93;;;3.80;;
7899;SDS011;3995;50.856;4.404;2022-07-11T09:56:34;11.13;;;4.17;;
7899;SDS011;3995;50.856;4.404;2022-07-11T09:59:04;4.97;;;3.30;;
7899;SDS011;3995;50.856;4.404;2022-07-11T10:01:32;6.67;;;3.27;;
7899;SDS011;3995;50.856;4.404;2022-07-11T10:03:59;4.87;;;3.07;;
7899;SDS011;3995;50.856;4.404;2022-07-11T10:06:27;5.97;;;3.70;;
7899;SDS011;3995;50.856;4.404;2022-07-11T10:08:54;4.23;;;2.90;;
7899;SDS011;3995;50.856;4.404;2022-07-11T10:11:22;3.67;;;2.67;;
7899;SDS011;3995;50.856;4.404;2022-07-11T10:13:52;4.27;;;3.30;;
7899;SDS011;3995;50.856;4.404;2022-07-11T10:19:20;9.03;;;3.40;;
7899;SDS011;3995;50.856;4.404;2022-07-11T10:21:56;5.00;;;3.27;;
7899;SDS011;3995;50.856;4.404;2022-07-11T10:24:32;11.80;;;4.50;;
7899;SDS011;3995;50.856;4.404;2022-07-11T10:27:11;12.63;;;4.20;;
7899;SDS011;3995;50.856;4.404;2022-07-11T10:29:50;4.90;;;4.27;;
7899;SDS011;3995;50.856;4.404;2022-07-11T10:32:18;3.70;;;2.90;;
7899;SDS011;3995;50.856;4.404;2022-07-11T10:34:55;6.03;;;3.17;;
7899;SDS011;3995;50.856;4.404;2022-07-11T10:37:44;5.07;;;2.57;;
7899;SDS011;3995;50.856;4.404;2022-07-11T10:40:13;6.50;;;3.10;;
7899;SDS011;3995;50.856;4.404;2022-07-11T10:42:41;4.70;;;2.60;;
7899;SDS011;3995;50.856;4.404;2022-07-11T10:45:10;5.90;;;3.57;;
7899;SDS011;3995;50.856;4.404;2022-07-11T10:47:39;6.00;;;4.03;;
7899;SDS011;3995;50.856;4.404;2022-07-11T10:50:10;11.70;;;4.20;;
7899;SDS011;3995;50.856;4.404;2022-07-11T10:52:49;4.10;;;3.00;;
7899;SDS011;3995;50.856;4.404;2022-07-11T10:55:29;4.43;;;3.20;;
7899;SDS011;3995;50.856;4.404;2022-07-11T10:58:06;3.53;;;3.03;;
7899;SDS011;3995;50.856;4.404;2022-07-11T11:00:39;7.07;;;3.50;;
7899;SDS011;3995;50.856;4.404;2022-07-11T11:03:06;8.03;;;3.70;;
7899;SDS011;3995;50.856;4.404;2022-07-11T11:05:41;6.30;;;3.13;;
7899;SDS011;3995;50.856;4.404;2022-07-11T11:14:16;4.50;;;2.83;;
7899;SDS011;3995;50.856;4.404;2022-07-11T11:16:47;4.60;;;3.10;;
7899;SDS011;3995;50.856;4.404;2022-07-11T11:22:18;7.33;;;4.07;;
7899;SDS011;3995;50.856;4.404;2022-07-11T11:24:47;6.27;;;3.10;;
7899;SDS011;3995;50.856;4.404;2022-07-11T11:27:16;4.27;;;3.33;;
7899;SDS011;3995;50.856;4.404;2022-07-11T11:29:47;7.20;;;4.27;;
7899;SDS011;3995;50.856;4.404;2022-07-11T11:32:17;5.80;;;3.90;;
7899;SDS011;3995;50.856;4.404;2022-07-11T11:34:45;10.97;;;4.03;;
7899;SDS011;3995;50.856;4.404;2022-07-11T11:37:14;5.63;;;4.80;;
7899;SDS011;3995;50.856;4.404;2022-07-11T11:39:42;11.20;;;4.00;;
7899;SDS011;3995;50.856;4.404;2022-07-11T11:42:11;5.30;;;3.70;;
7899;SDS011;3995;50.856;4.404;2022-07-11T11:44:47;6.20;;;4.30;;
7899;SDS011;3995;50.856;4.404;2022-07-11T11:47:18;4.30;;;3.47;;
7899;SDS011;3995;50.856;4.404;2022-07-11T11:49:46;6.40;;;4.40;;
7899;SDS011;3995;50.856;4.404;2022-07-11T11:52:14;5.37;;;4.80;;
7899;SDS011;3995;50.856;4.404;2022-07-11T11:54:42;7.57;;;6.80;;
7899;SDS011;3995;50.856;4.404;2022-07-11T11:57:12;15.53;;;8.27;;
7899;SDS011;3995;50.856;4.404;2022-07-11T11:59:39;9.50;;;7.97;;
7899;SDS011;3995;50.856;4.404;2022-07-11T12:02:07;10.13;;;7.60;;
7899;SDS011;3995;50.856;4.404;2022-07-11T12:04:36;9.57;;;8.20;;
7899;SDS011;3995;50.856;4.404;2022-07-11T12:07:04;15.67;;;9.40;;
7899;SDS011;3995;50.856;4.404;2022-07-11T12:09:31;9.50;;;8.57;;
7899;SDS011;3995;50.856;4.404;2022-07-11T12:12:19;10.47;;;7.70;;
7899;SDS011;3995;50.856;4.404;2022-07-11T12:15:05;10.20;;;6.87;;
7899;SDS011;3995;50.856;4.404;2022-07-11T12:17:34;8.43;;;7.30;;
7899;SDS011;3995;50.856;4.404;2022-07-11T12:20:03;9.83;;;7.97;;
7899;SDS011;3995;50.856;4.404;2022-07-11T12:22:40;8.00;;;7.30;;
7899;SDS011;3995;50.856;4.404;2022-07-11T12:25:08;9.43;;;8.07;;
7899;SDS011;3995;50.856;4.404;2022-07-11T12:27:37;7.30;;;6.60;;
7899;SDS011;3995;50.856;4.404;2022-07-11T12:30:04;12.80;;;6.90;;
7899;SDS011;3995;50.856;4.404;2022-07-11T12:32:32;7.40;;;5.97;;
7899;SDS011;3995;50.856;4.404;2022-07-11T12:34:59;6.47;;;5.83;;
7899;SDS011;3995;50.856;4.404;2022-07-11T12:37:39;8.47;;;6.30;;
7899;SDS011;3995;50.856;4.404;2022-07-11T12:40:09;8.63;;;6.97;;
7899;SDS011;3995;50.856;4.404;2022-07-11T12:42:38;7.37;;;6.70;;
7899;SDS011;3995;50.856;4.404;2022-07-11T12:45:06;7.07;;;5.80;;
7899;SDS011;3995;50.856;4.404;2022-07-11T12:47:34;7.97;;;5.77;;
7899;SDS011;3995;50.856;4.404;2022-07-11T12:50:10;7.50;;;5.73;;
7899;SDS011;3995;50.856;4.404;2022-07-11T12:52:40;7.17;;;5.47;;
7899;SDS011;3995;50.856;4.404;2022-07-11T12:55:10;6.23;;;5.20;;
7899;SDS011;3995;50.856;4.404;2022-07-11T12:57:59;5.93;;;5.40;;
7899;SDS011;3995;50.856;4.404;2022-07-11T13:00:27;5.50;;;5.00;;
7899;SDS011;3995;50.856;4.404;2022-07-11T13:02:56;5.90;;;5.30;;
7899;SDS011;3995;50.856;4.404;2022-07-11T13:05:23;4.93;;;4.40;;
7899;SDS011;3995;50.856;4.404;2022-07-11T13:07:52;4.90;;;4.30;;
7899;SDS011;3995;50.856;4.404;2022-07-11T13:10:36;6.07;;;4.07;;
7899;SDS011;3995;50.856;4.404;2022-07-11T13:13:25;5.47;;;4.60;;
7899;SDS011;3995;50.856;4.404;2022-07-11T13:15:52;5.50;;;4.03;;
7899;SDS011;3995;50.856;4.404;2022-07-11T13:18:20;6.67;;;4.37;;
7899;SDS011;3995;50.856;4.404;2022-07-11T13:20:48;4.43;;;4.03;;
7899;SDS011;3995;50.856;4.404;2022-07-11T13:23:17;4.90;;;4.30;;
7899;SDS011;3995;50.856;4.404;2022-07-11T13:25:44;7.27;;;3.70;;
7899;SDS011;3995;50.856;4.404;2022-07-11T13:28:16;4.27;;;3.77;;
7899;SDS011;3995;50.856;4.404;2022-07-11T13:30:44;4.47;;;3.53;;
7899;SDS011;3995;50.856;4.404;2022-07-11T13:33:12;7.20;;;4.00;;
7899;SDS011;3995;50.856;4.404;2022-07-11T13:35:39;3.40;;;3.10;;
7899;SDS011;3995;50.856;4.404;2022-07-11T13:38:07;4.83;;;3.70;;
7899;SDS011;3995;50.856;4.404;2022-07-11T13:40:36;3.67;;;3.37;;
7899;SDS011;3995;50.856;4.404;2022-07-11T13:43:03;3.97;;;3.33;;
7899;SDS011;3995;50.856;4.404;2022-07-11T13:45:30;4.20;;;3.80;;
7899;SDS011;3995;50.856;4.404;2022-07-11T13:47:58;6.30;;;3.47;;
7899;SDS011;3995;50.856;4.404;2022-07-11T13:50:26;3.23;;;2.93;;
7899;SDS011;3995;50.856;4.404;2022-07-11T13:52:53;3.67;;;3.37;;
7899;SDS011;3995;50.856;4.404;2022-07-11T13:55:22;4.30;;;3.20;;
7899;SDS011;3995;50.856;4.404;2022-07-11T13:57:55;5.13;;;3.30;;
7899;SDS011;3995;50.856;4.404;2022-07-11T14:00:23;4.37;;;3.97;;
7899;SDS011;3995;50.856;4.404;2022-07-11T14:02:51;4.70;;;4.00;;
7899;SDS011;3995;50.856;4.404;2022-07-11T14:05:18;5.00;;;4.00;;
7899;SDS011;3995;50.856;4.404;2022-07-11T14:07:46;4.90;;;4.00;;
7899;SDS011;3995;50.856;4.404;2022-07-11T14:10:13;4.07;;;3.70;;
7899;SDS011;3995;50.856;4.404;2022-07-11T14:12:41;7.07;;;3.67;;
7899;SDS011;3995;50.856;4.404;2022-07-11T14:15:10;5.93;;;4.57;;
7899;SDS011;3995;50.856;4.404;2022-07-11T14:17:38;11.73;;;5.47;;
7899;SDS011;3995;50.856;4.404;2022-07-11T14:20:05;5.30;;;4.80;;
7899;SDS011;3995;50.856;4.404;2022-07-11T14:22:33;5.47;;;4.13;;
7899;SDS011;3995;50.856;4.404;2022-07-11T14:25:01;5.23;;;4.50;;
7899;SDS011;3995;50.856;4.404;2022-07-11T14:27:28;4.40;;;4.00;;
7899;SDS011;3995;50.856;4.404;2022-07-11T14:29:55;4.47;;;4.07;;
7899;SDS011;3995;50.856;4.404;2022-07-11T14:32:24;4.27;;;3.87;;
7899;SDS011;3995;50.856;4.404;2022-07-11T14:34:52;4.23;;;3.80;;
7899;SDS011;3995;50.856;4.404;2022-07-11T14:37:19;4.93;;;4.43;;
7899;SDS011;3995;50.856;4.404;2022-07-11T14:39:47;6.33;;;4.07;;
7899;SDS011;3995;50.856;4.404;2022-07-11T14:42:14;8.23;;;3.57;;
7899;SDS011;3995;50.856;4.404;2022-07-11T14:44:41;7.30;;;3.73;;
7899;SDS011;3995;50.856;4.404;2022-07-11T14:47:09;4.47;;;3.70;;
7899;SDS011;3995;50.856;4.404;2022-07-11T14:49:38;5.53;;;3.80;;
7899;SDS011;3995;50.856;4.404;2022-07-11T14:52:05;3.90;;;3.50;;
7899;SDS011;3995;50.856;4.404;2022-07-11T14:54:32;4.97;;;4.03;;
7899;SDS011;3995;50.856;4.404;2022-07-11T14:57:00;3.73;;;3.43;;
7899;SDS011;3995;50.856;4.404;2022-07-11T14:59:27;3.90;;;3.60;;
7899;SDS011;3995;50.856;4.404;2022-07-11T15:01:54;6.10;;;3.60;;
7899;SDS011;3995;50.856;4.404;2022-07-11T15:04:24;3.87;;;3.23;;
7899;SDS011;3995;50.856;4.404;2022-07-11T15:06:53;7.60;;;3.83;;
7899;SDS011;3995;50.856;4.404;2022-07-11T15:09:37;6.93;;;3.40;;
7899;SDS011;3995;50.856;4.404;2022-07-11T15:12:21;4.50;;;3.70;;
7899;SDS011;3995;50.856;4.404;2022-07-11T15:14:50;3.73;;;3.43;;
7899;SDS011;3995;50.856;4.404;2022-07-11T15:17:17;6.63;;;4.60;;
7899;SDS011;3995;50.856;4.404;2022-07-11T15:19:44;4.40;;;4.00;;
7899;SDS011;3995;50.856;4.404;2022-07-11T15:22:13;4.80;;;4.33;;
7899;SDS011;3995;50.856;4.404;2022-07-11T15:24:40;5.27;;;4.27;;
7899;SDS011;3995;50.856;4.404;2022-07-11T15:27:08;6.57;;;4.40;;
7899;SDS011;3995;50.856;4.404;2022-07-11T15:29:35;5.50;;;3.60;;
7899;SDS011;3995;50.856;4.404;2022-07-11T15:32:03;9.20;;;4.20;;